Time;durP1;ratioP1;P1;durP2;ratioP2;P2;SDS_P1;SDS_P2;PMS_P1;PMS_P2;Temp;Humidity;BMP_temperature;BMP_pressure;BME280_temperature;BME280_humidity;BME280_pressure;Samples;Min_cycle;Max_cycle;Signal;HPM_P1;HPM_P2
2023/08/24 00:00:26;;;;;;;10.10;7.97;;;20.70;99.90;;;;;;5009830;28;20120;-43
2023/08/24 00:02:54;;;;;;;11.43;8.57;;;20.70;99.90;;;;;;5001022;28;20045;-43
2023/08/24 00:05:21;;;;;;;13.77;7.90;;;20.60;99.90;;;;;;5007129;28;20132;-42
2023/08/24 00:07:49;;;;;;;11.57;8.60;;;20.60;99.90;;;;;;5010048;28;20055;-42
2023/08/24 00:10:17;;;;;;;8.57;7.68;;;20.60;99.90;;;;;;5013055;28;20090;-42
2023/08/24 00:12:45;;;;;;;8.57;7.80;;;20.60;99.90;;;;;;5013601;28;20148;-40
2023/08/24 00:15:13;;;;;;;10.55;7.57;;;20.60;99.90;;;;;;5015796;28;20056;-45
2023/08/24 00:17:42;;;;;;;10.27;7.63;;;20.50;99.90;;;;;;5002682;28;20042;-44
2023/08/24 00:20:10;;;;;;;10.70;8.15;;;20.50;99.90;;;;;;5022559;28;20464;-41
2023/08/24 00:22:39;;;;;;;11.20;8.05;;;20.50;99.90;;;;;;5010158;28;20121;-42
2023/08/24 00:25:08;;;;;;;11.60;7.90;;;20.40;99.90;;;;;;5010510;28;20050;-42
2023/08/24 00:27:36;;;;;;;8.65;7.50;;;20.40;99.90;;;;;;5010334;28;20057;-42
2023/08/24 00:30:06;;;;;;;8.38;7.57;;;20.40;99.90;;;;;;5010325;28;20045;-42
2023/08/24 00:32:35;;;;;;;8.90;7.85;;;20.30;99.90;;;;;;5008779;28;20052;-43
2023/08/24 00:35:04;;;;;;;11.30;7.90;;;20.30;99.90;;;;;;5010707;28;20053;-42
2023/08/24 00:37:32;;;;;;;13.48;8.18;;;20.30;99.90;;;;;;5003753;28;20479;-41
2023/08/24 00:40:03;;;;;;;10.95;7.93;;;20.20;99.90;;;;;;5001457;28;20136;-42
2023/08/24 00:42:31;;;;;;;14.75;8.05;;;20.20;99.90;;;;;;5008864;28;20066;-43
2023/08/24 00:44:58;;;;;;;10.15;7.47;;;20.20;99.90;;;;;;5011866;28;20124;-41
2023/08/24 00:47:26;;;;;;;9.98;8.02;;;20.20;99.90;;;;;;5011028;28;20149;-41
2023/08/24 00:49:54;;;;;;;10.90;7.70;;;20.10;99.90;;;;;;5008642;28;20041;-41
2023/08/24 00:52:21;;;;;;;11.65;8.25;;;20.10;99.90;;;;;;5003569;28;20625;-43
2023/08/24 00:54:50;;;;;;;12.30;10.90;;;20.10;99.90;;;;;;5002248;28;20049;-42
2023/08/24 00:57:18;;;;;;;9.18;8.07;;;20.00;99.90;;;;;;5006744;28;20077;-43
2023/08/24 00:59:46;;;;;;;9.57;8.43;;;20.00;99.90;;;;;;5009974;28;20151;-40
2023/08/24 01:02:14;;;;;;;12.43;7.60;;;19.90;99.90;;;;;;5010898;28;20142;-42
2023/08/24 01:04:45;;;;;;;11.60;8.07;;;19.90;99.90;;;;;;5008741;28;20125;-42
2023/08/24 01:07:13;;;;;;;8.95;7.63;;;19.90;99.90;;;;;;5011155;28;20146;-42
2023/08/24 01:09:41;;;;;;;12.10;8.13;;;19.80;99.90;;;;;;5009051;28;20053;-38
2023/08/24 01:12:18;;;;;;;9.80;7.90;;;19.80;99.90;;;;;;5011596;28;20070;-42
2023/08/24 01:14:58;;;;;;;11.32;7.57;;;19.70;99.90;;;;;;5010903;28;20048;-43
2023/08/24 01:17:29;;;;;;;10.00;7.55;;;19.70;99.90;;;;;;5010330;28;20454;-42
2023/08/24 01:19:58;;;;;;;;;;;19.70;99.90;;;;;;5010565;28;20049;-40
2023/08/24 01:22:59;;;;;;;9.80;8.05;;;19.70;99.90;;;;;;5007158;28;19972;-42
2023/08/24 01:25:42;;;;;;;10.25;7.40;;;19.60;99.90;;;;;;5007770;28;20057;-43
2023/08/24 01:28:09;;;;;;;;;;;19.60;99.90;;;;;;5006531;28;20050;-41
2023/08/24 01:30:37;;;;;;;8.82;7.75;;;19.60;99.90;;;;;;5008984;28;20347;-40
2023/08/24 01:33:05;;;;;;;8.55;7.03;;;19.60;99.90;;;;;;5012823;28;20052;-40
2023/08/24 01:35:33;;;;;;;11.85;8.50;;;19.60;99.90;;;;;;5015412;28;20045;-40
2023/08/24 01:38:04;;;;;;;11.95;8.60;;;19.60;99.90;;;;;;5010928;28;20056;-42
2023/08/24 01:40:45;;;;;;;11.53;7.60;;;19.60;99.90;;;;;;5011072;28;20055;-43
2023/08/24 01:43:14;;;;;;;11.70;9.05;;;19.60;99.90;;;;;;5011427;28;20197;-45
2023/08/24 01:45:53;;;;;;;12.30;8.68;;;19.60;99.90;;;;;;5004698;28;20044;-45
2023/08/24 01:48:22;;;;;;;10.98;7.97;;;19.60;99.90;;;;;;5000873;28;20464;-39
2023/08/24 01:50:50;;;;;;;10.98;8.00;;;19.60;99.90;;;;;;5007021;28;20052;-41
2023/08/24 01:53:17;;;;;;;10.32;8.25;;;19.60;99.90;;;;;;5010462;28;20050;-41
2023/08/24 01:55:46;;;;;;;9.68;7.53;;;19.60;99.90;;;;;;5008884;28;20121;-41
2023/08/24 01:58:13;;;;;;;10.98;8.40;;;19.60;99.90;;;;;;5007589;28;20056;-43
2023/08/24 02:00:41;;;;;;;10.65;8.38;;;19.60;99.90;;;;;;5011893;28;20194;-42
2023/08/24 02:03:08;;;;;;;10.82;7.78;;;19.60;99.90;;;;;;5008270;28;20220;-42
2023/08/24 02:05:36;;;;;;;12.55;8.27;;;19.50;99.90;;;;;;5006337;28;20073;-41
2023/08/24 02:08:03;;;;;;;11.55;8.55;;;19.50;99.90;;;;;;5002870;28;20546;-42
2023/08/24 02:10:31;;;;;;;14.57;8.43;;;19.50;99.90;;;;;;5003826;28;20054;-42
2023/08/24 02:12:58;;;;;;;12.07;8.95;;;19.40;99.90;;;;;;5012240;28;20368;-42
2023/08/24 02:15:26;;;;;;;9.82;8.23;;;19.30;99.90;;;;;;5007264;28;20071;-44
2023/08/24 02:17:55;;;;;;;12.32;9.13;;;19.30;99.90;;;;;;5007866;28;20065;-42
2023/08/24 02:20:23;;;;;;;10.82;8.10;;;19.30;99.90;;;;;;5008120;28;20459;-42
2023/08/24 02:22:50;;;;;;;9.65;8.52;;;19.30;99.90;;;;;;5004191;28;20042;-41
2023/08/24 02:25:18;;;;;;;10.18;8.38;;;19.30;99.90;;;;;;5005364;28;20486;-42
2023/08/24 02:27:45;;;;;;;18.15;8.27;;;19.30;99.90;;;;;;5004978;28;20057;-42
2023/08/24 02:30:13;;;;;;;9.52;8.52;;;19.20;99.90;;;;;;5013197;28;20073;-41
2023/08/24 02:32:41;;;;;;;11.15;8.93;;;19.10;99.90;;;;;;5008045;28;20041;-44
2023/08/24 02:35:08;;;;;;;14.80;8.60;;;19.10;99.90;;;;;;5010055;28;20144;-42
2023/08/24 02:37:36;;;;;;;9.07;8.02;;;19.10;99.90;;;;;;5006002;28;20538;-42
2023/08/24 02:40:04;;;;;;;11.40;8.43;;;19.00;99.90;;;;;;5006108;28;20050;-42
2023/08/24 02:42:32;;;;;;;9.25;8.25;;;19.00;99.90;;;;;;5006228;28;20640;-43
2023/08/24 02:44:59;;;;;;;10.15;8.18;;;19.00;99.90;;;;;;5006304;28;20537;-42
2023/08/24 02:47:27;;;;;;;10.77;8.55;;;19.00;99.90;;;;;;5005444;28;20128;-44
2023/08/24 02:49:54;;;;;;;10.10;8.15;;;19.00;99.90;;;;;;5004687;28;20088;-42
2023/08/24 02:52:22;;;;;;;9.07;8.18;;;19.00;99.90;;;;;;5008025;28;20495;-42
2023/08/24 02:54:50;;;;;;;13.63;8.40;;;19.00;99.90;;;;;;5008109;28;20060;-42
2023/08/24 02:57:17;;;;;;;11.35;8.90;;;18.90;99.90;;;;;;5007737;28;20592;-42
2023/08/24 02:59:44;;;;;;;11.32;8.65;;;18.90;99.90;;;;;;5007554;28;20069;-42
2023/08/24 03:02:12;;;;;;;11.23;8.05;;;18.80;99.90;;;;;;5008734;28;20066;-39
2023/08/24 03:04:39;;;;;;;9.45;8.40;;;18.80;99.90;;;;;;5011077;28;20050;-42
2023/08/24 03:07:08;;;;;;;14.00;8.77;;;18.80;99.90;;;;;;5010124;28;20422;-42
2023/08/24 03:09:35;;;;;;;11.68;8.15;;;18.80;99.90;;;;;;5005877;28;20161;-41
2023/08/24 03:12:03;;;;;;;14.32;8.77;;;18.80;99.90;;;;;;5006520;28;20049;-42
2023/08/24 03:14:31;;;;;;;9.38;8.25;;;18.70;99.90;;;;;;5007516;28;20056;-42
2023/08/24 03:16:59;;;;;;;13.00;7.90;;;18.70;99.90;;;;;;5006437;28;20140;-41
2023/08/24 03:19:27;;;;;;;12.25;8.75;;;18.70;99.90;;;;;;5007618;28;20056;-42
2023/08/24 03:21:55;;;;;;;8.80;7.63;;;18.60;99.90;;;;;;5001416;28;20046;-41
2023/08/24 03:24:22;;;;;;;9.48;8.48;;;18.70;99.90;;;;;;5003543;28;20100;-43
2023/08/24 03:26:49;;;;;;;12.57;8.60;;;18.70;99.90;;;;;;5007005;28;20491;-39
2023/08/24 03:29:16;;;;;;;10.20;8.68;;;18.70;99.90;;;;;;5001527;28;20133;-42
2023/08/24 03:31:44;;;;;;;12.32;9.07;;;18.60;99.90;;;;;;5007513;28;20581;-41
2023/08/24 03:34:12;;;;;;;11.63;8.18;;;18.60;99.90;;;;;;4986191;28;20466;-41
2023/08/24 03:36:39;;;;;;;11.27;9.15;;;18.60;99.90;;;;;;5006284;28;20042;-41
2023/08/24 03:39:06;;;;;;;10.27;8.75;;;18.60;99.90;;;;;;5006896;28;20054;-42
2023/08/24 03:41:34;;;;;;;11.90;8.10;;;18.60;99.90;;;;;;5004227;28;20503;-41
2023/08/24 03:44:01;;;;;;;11.13;8.43;;;18.60;99.90;;;;;;5001882;28;20160;-41
2023/08/24 03:46:29;;;;;;;10.55;8.38;;;18.60;99.90;;;;;;5005279;28;20471;-41
2023/08/24 03:48:56;;;;;;;12.70;8.73;;;18.60;99.90;;;;;;5005891;28;20046;-40
2023/08/24 03:51:24;;;;;;;10.10;7.93;;;18.60;99.90;;;;;;5007481;28;20493;-40
2023/08/24 03:53:51;;;;;;;12.68;8.18;;;18.60;99.90;;;;;;5006329;28;20042;-42
2023/08/24 03:56:18;;;;;;;10.93;8.27;;;18.60;99.90;;;;;;5007624;28;20050;-42
2023/08/24 03:58:46;;;;;;;10.15;8.70;;;18.60;99.90;;;;;;5003575;28;20058;-42
2023/08/24 04:01:13;;;;;;;10.57;8.70;;;18.60;99.90;;;;;;5003291;28;20046;-42
2023/08/24 04:03:41;;;;;;;9.57;8.25;;;18.60;99.90;;;;;;5004439;28;20068;-44
2023/08/24 04:06:08;;;;;;;11.90;9.07;;;18.60;99.90;;;;;;5001409;28;20056;-41
2023/08/24 04:08:35;;;;;;;10.35;8.90;;;18.60;99.90;;;;;;5004365;28;20049;-42
2023/08/24 04:11:03;;;;;;;11.27;8.52;;;18.60;99.90;;;;;;5004789;28;20046;-42
2023/08/24 04:13:31;;;;;;;13.80;8.90;;;18.60;99.90;;;;;;5005859;28;20133;-42
2023/08/24 04:15:58;;;;;;;11.15;9.27;;;18.60;99.90;;;;;;5000519;28;20042;-43
2023/08/24 04:18:25;;;;;;;12.13;8.60;;;18.50;99.90;;;;;;5006546;28;20129;-41
2023/08/24 04:20:53;;;;;;;9.93;8.52;;;18.60;99.90;;;;;;5009743;28;20108;-42
2023/08/24 04:23:27;;;;;;;12.43;8.75;;;18.50;99.90;;;;;;5009270;28;20068;-42
2023/08/24 04:25:54;;;;;;;10.32;9.23;;;18.50;99.90;;;;;;5011539;28;20048;-42
2023/08/24 04:28:23;;;;;;;11.90;8.25;;;18.50;99.90;;;;;;5011096;28;20049;-43
2023/08/24 04:30:55;;;;;;;13.90;8.60;;;18.50;99.90;;;;;;5009049;28;20053;-43
2023/08/24 04:33:23;;;;;;;10.10;8.63;;;18.50;99.90;;;;;;5009264;28;20148;-42
2023/08/24 04:35:51;;;;;;;11.10;8.27;;;18.50;99.90;;;;;;5004951;28;20050;-43
2023/08/24 04:38:19;;;;;;;10.10;8.65;;;18.50;99.90;;;;;;5007157;28;20053;-43
2023/08/24 04:40:51;;;;;;;11.15;7.63;;;18.60;99.90;;;;;;5006487;28;20066;-40
2023/08/24 04:43:20;;;;;;;11.93;8.43;;;18.50;99.90;;;;;;5017270;28;20109;-43
2023/08/24 04:45:53;;;;;;;9.48;8.27;;;18.50;99.90;;;;;;5013216;28;20034;-40
2023/08/24 04:48:21;;;;;;;12.68;8.20;;;18.50;99.90;;;;;;5004671;28;20058;-43
2023/08/24 04:50:49;;;;;;;12.13;8.00;;;18.50;99.90;;;;;;5001263;28;20030;-41
2023/08/24 04:53:18;;;;;;;10.63;8.13;;;18.50;99.90;;;;;;5006555;28;20065;-42
2023/08/24 04:55:46;;;;;;;11.60;8.38;;;18.50;99.90;;;;;;5008506;28;20045;-42
2023/08/24 04:58:13;;;;;;;12.30;8.18;;;18.50;99.90;;;;;;5007565;28;20046;-40
2023/08/24 05:00:41;;;;;;;10.30;7.63;;;18.60;99.90;;;;;;5009062;28;20041;-40
2023/08/24 05:03:09;;;;;;;13.88;8.40;;;18.60;99.90;;;;;;5008774;28;20060;-43
2023/08/24 05:05:37;;;;;;;11.27;7.97;;;18.60;99.90;;;;;;5018019;28;20053;-43
2023/08/24 05:08:06;;;;;;;10.20;7.63;;;18.70;99.90;;;;;;5018305;28;20054;-42
2023/08/24 05:10:36;;;;;;;12.52;7.85;;;18.80;99.90;;;;;;5013754;28;20114;-40
2023/08/24 05:13:03;;;;;;;9.57;8.20;;;18.90;99.90;;;;;;5018075;28;20081;-42
2023/08/24 05:15:30;;;;;;;13.18;8.15;;;18.90;99.90;;;;;;5009209;28;20566;-40
2023/08/24 05:17:59;;;;;;;11.07;8.13;;;19.00;99.90;;;;;;5003998;28;20131;-42
2023/08/24 05:20:27;;;;;;;10.40;8.35;;;19.20;99.90;;;;;;5004711;28;20092;-41
2023/08/24 05:22:54;;;;;;;8.57;7.43;;;19.20;99.90;;;;;;5007925;28;20069;-43
2023/08/24 05:25:22;;;;;;;12.55;8.00;;;19.30;99.90;;;;;;5002743;28;20054;-41
2023/08/24 05:27:50;;;;;;;9.90;7.40;;;19.40;99.90;;;;;;5009095;28;20046;-43
2023/08/24 05:30:18;;;;;;;13.55;9.45;;;19.50;99.90;;;;;;5005952;28;20045;-42
2023/08/24 05:32:45;;;;;;;12.18;9.00;;;19.80;99.90;;;;;;5005468;28;20096;-41
2023/08/24 05:35:13;;;;;;;12.50;9.50;;;19.90;99.90;;;;;;5018916;28;20386;-43
2023/08/24 05:37:40;;;;;;;8.80;7.88;;;20.20;99.90;;;;;;5017632;28;20050;-46
2023/08/24 05:40:08;;;;;;;13.98;8.00;;;20.30;99.90;;;;;;5011190;28;20052;-39
2023/08/24 05:42:36;;;;;;;9.15;7.43;;;20.40;99.90;;;;;;5010515;28;20049;-41
2023/08/24 05:45:04;;;;;;;14.60;7.97;;;20.60;99.90;;;;;;5010214;28;20061;-42
2023/08/24 05:47:32;;;;;;;12.07;7.88;;;20.70;99.90;;;;;;5004660;28;20046;-41
2023/08/24 05:49:59;;;;;;;12.57;7.10;;;20.80;99.90;;;;;;5010562;28;20479;-41
2023/08/24 05:52:27;;;;;;;11.48;7.20;;;21.00;99.90;;;;;;5009990;28;20457;-40
2023/08/24 05:54:54;;;;;;;7.53;6.65;;;21.10;99.90;;;;;;5009910;28;20049;-40
2023/08/24 05:57:21;;;;;;;8.15;7.25;;;21.20;99.90;;;;;;5007863;28;20101;-41
2023/08/24 05:59:49;;;;;;;7.88;6.05;;;21.30;99.90;;;;;;5006996;28;20061;-43
2023/08/24 06:02:16;;;;;;;8.20;6.30;;;21.30;99.90;;;;;;5004686;28;20076;-42
2023/08/24 06:04:44;;;;;;;12.10;6.78;;;21.40;99.90;;;;;;5005682;28;20128;-42
2023/08/24 06:07:11;;;;;;;7.78;6.63;;;21.40;99.90;;;;;;5005427;28;20077;-41
2023/08/24 06:09:38;;;;;;;8.82;6.72;;;21.40;99.90;;;;;;5006399;28;20163;-42
2023/08/24 06:12:06;;;;;;;10.05;6.63;;;21.40;99.90;;;;;;5010367;28;20480;-42
2023/08/24 06:14:33;;;;;;;9.30;7.13;;;21.40;99.90;;;;;;5002156;28;20100;-42
2023/08/24 06:17:01;;;;;;;10.18;7.20;;;21.50;99.90;;;;;;5000752;28;20646;-41
2023/08/24 06:19:28;;;;;;;8.43;6.97;;;21.50;99.90;;;;;;5005869;28;20101;-42
2023/08/24 06:21:55;;;;;;;9.95;7.20;;;21.50;99.90;;;;;;4997901;28;20445;-42
2023/08/24 06:24:23;;;;;;;9.60;7.15;;;21.60;99.90;;;;;;5004865;28;20491;-40
2023/08/24 06:26:51;;;;;;;10.07;7.22;;;21.60;99.90;;;;;;5008187;28;20045;-42
2023/08/24 06:29:18;;;;;;;14.75;8.15;;;21.60;99.90;;;;;;5007605;28;20075;-42
2023/08/24 06:31:45;;;;;;;13.32;9.48;;;21.60;99.90;;;;;;5008658;28;20539;-40
2023/08/24 06:34:13;;;;;;;14.18;9.88;;;21.60;99.90;;;;;;5006865;28;20515;-42
2023/08/24 06:36:40;;;;;;;11.13;8.20;;;21.70;99.90;;;;;;5003306;28;20042;-41
2023/08/24 06:39:08;;;;;;;11.07;8.65;;;21.90;99.90;;;;;;4994349;28;20054;-42
2023/08/24 06:41:35;;;;;;;12.32;8.13;;;22.00;99.90;;;;;;5000629;28;20060;-43
2023/08/24 06:44:07;;;;;;;9.32;8.35;;;22.00;99.90;;;;;;5010254;28;20057;-42
2023/08/24 06:46:34;;;;;;;8.57;7.55;;;22.00;99.90;;;;;;5003419;28;20062;-40
2023/08/24 06:49:01;;;;;;;10.10;8.85;;;22.20;99.90;;;;;;5004299;28;20080;-41
2023/08/24 06:51:29;;;;;;;12.90;8.77;;;22.30;99.90;;;;;;4999870;28;20369;-41
2023/08/24 06:53:56;;;;;;;10.95;8.43;;;22.40;99.90;;;;;;5004864;28;20407;-42
2023/08/24 06:56:23;;;;;;;10.20;8.15;;;22.50;99.90;;;;;;5001796;28;20069;-40
2023/08/24 06:58:51;;;;;;;11.63;7.97;;;22.70;99.90;;;;;;5006612;28;20138;-41
2023/08/24 07:01:19;;;;;;;12.60;7.72;;;22.80;99.90;;;;;;5006833;28;20798;-42
2023/08/24 07:03:47;;;;;;;14.00;7.43;;;23.10;99.90;;;;;;5003792;28;20070;-41
2023/08/24 07:06:14;;;;;;;9.25;7.80;;;23.20;99.90;;;;;;5008026;28;20058;-40
2023/08/24 07:08:42;;;;;;;9.13;6.93;;;23.00;99.90;;;;;;5005583;28;20065;-43
2023/08/24 07:11:09;;;;;;;11.05;6.90;;;23.10;99.90;;;;;;5004635;28;20052;-46
2023/08/24 07:13:36;;;;;;;13.50;7.10;;;23.30;99.90;;;;;;5002446;28;20052;-46
2023/08/24 07:16:04;;;;;;;8.40;7.35;;;23.30;99.90;;;;;;5000824;28;20220;-45
2023/08/24 07:18:31;;;;;;;11.77;7.63;;;23.40;99.90;;;;;;4997163;28;20053;-45
2023/08/24 07:20:59;;;;;;;11.68;7.32;;;23.60;99.90;;;;;;4998544;28;20065;-46
2023/08/24 07:23:26;;;;;;;10.45;7.82;;;23.60;99.90;;;;;;5003772;28;20083;-45
2023/08/24 07:25:54;;;;;;;9.90;8.57;;;23.60;99.90;;;;;;5007604;28;20049;-46
2023/08/24 07:28:21;;;;;;;9.63;8.35;;;23.70;99.90;;;;;;5001263;28;20535;-47
2023/08/24 07:30:48;;;;;;;10.40;8.88;;;23.70;99.90;;;;;;5003636;28;20044;-47
2023/08/24 07:33:16;;;;;;;12.30;8.40;;;23.80;99.90;;;;;;5003496;28;20068;-44
2023/08/24 07:35:43;;;;;;;10.90;8.70;;;23.70;99.90;;;;;;5005553;28;20038;-44
2023/08/24 07:38:10;;;;;;;11.35;9.88;;;23.80;99.90;;;;;;5007216;28;20050;-47
2023/08/24 07:40:38;;;;;;;12.75;9.63;;;23.90;99.90;;;;;;5007778;28;20351;-45
2023/08/24 07:43:05;;;;;;;14.15;9.50;;;23.80;99.90;;;;;;5008704;28;20065;-47
2023/08/24 07:45:33;;;;;;;11.73;9.20;;;23.80;99.90;;;;;;5005712;28;20096;-49
2023/08/24 07:48:00;;;;;;;12.20;9.30;;;23.90;99.90;;;;;;5005145;28;20521;-45
2023/08/24 07:50:28;;;;;;;12.05;8.75;;;24.20;99.90;;;;;;5003537;28;20042;-50
2023/08/24 07:52:55;;;;;;;12.93;10.38;;;24.30;99.90;;;;;;5003786;28;20042;-49
2023/08/24 07:55:24;;;;;;;11.05;9.25;;;24.20;99.90;;;;;;5010557;28;20329;-46
2023/08/24 07:57:51;;;;;;;11.88;9.00;;;24.30;99.90;;;;;;5009602;28;20135;-47
2023/08/24 08:00:19;;;;;;;13.05;9.57;;;24.20;99.90;;;;;;5010116;28;20422;-47
2023/08/24 08:02:50;;;;;;;16.55;9.20;;;24.10;99.90;;;;;;5000253;28;20065;-47
2023/08/24 08:05:18;;;;;;;10.93;9.30;;;23.90;99.90;;;;;;5007893;28;20523;-47
2023/08/24 08:07:45;;;;;;;10.70;8.43;;;23.90;99.90;;;;;;5003379;28;20053;-46
2023/08/24 08:10:13;;;;;;;10.70;9.57;;;24.00;99.90;;;;;;5005455;28;20046;-47
2023/08/24 08:12:40;;;;;;;11.25;8.98;;;24.10;99.90;;;;;;5000450;28;20053;-47
2023/08/24 08:15:08;;;;;;;10.02;9.02;;;24.20;99.90;;;;;;5007394;28;20499;-48
2023/08/24 08:17:35;;;;;;;8.75;7.95;;;24.10;99.90;;;;;;5008072;28;20054;-47
2023/08/24 08:20:03;;;;;;;10.60;8.27;;;24.20;99.90;;;;;;5007900;28;20116;-44
2023/08/24 08:22:38;;;;;;;10.57;8.80;;;24.10;99.90;;;;;;5003342;28;20050;-48
2023/08/24 08:25:06;;;;;;;8.68;7.95;;;24.30;99.90;;;;;;5002190;28;20132;-49
2023/08/24 08:27:34;;;;;;;11.27;8.00;;;24.40;99.90;;;;;;5006985;28;20094;-48
2023/08/24 08:30:04;;;;;;;8.90;8.05;;;24.50;99.90;;;;;;5007904;28;20306;-47
2023/08/24 08:32:32;;;;;;;11.33;7.93;;;24.70;99.90;;;;;;5010236;28;20197;-48
2023/08/24 08:35:00;;;;;;;10.77;8.35;;;24.80;99.90;;;;;;5005785;28;20325;-45
2023/08/24 08:37:30;;;;;;;10.55;8.45;;;24.90;99.90;;;;;;4995732;28;20522;-46
2023/08/24 08:39:57;;;;;;;13.38;8.07;;;25.10;99.90;;;;;;5003060;28;20046;-45
2023/08/24 08:42:25;;;;;;;8.25;7.53;;;25.20;99.90;;;;;;5010468;28;20054;-43
2023/08/24 08:44:55;;;;;;;10.50;8.10;;;25.40;99.90;;;;;;4998198;28;20066;-49
2023/08/24 08:47:22;;;;;;;9.27;7.80;;;25.50;99.90;;;;;;5007781;28;20076;-45
2023/08/24 08:49:52;;;;;;;8.48;7.45;;;25.70;99.90;;;;;;5007102;28;20076;-46
2023/08/24 08:52:19;;;;;;;8.63;7.70;;;25.80;99.90;;;;;;5004705;28;20052;-45
2023/08/24 08:54:46;;;;;;;9.35;7.93;;;25.90;99.90;;;;;;4997005;28;20053;-47
2023/08/24 08:57:16;;;;;;;13.05;9.00;;;26.10;99.90;;;;;;5000325;28;20046;-46
2023/08/24 08:59:46;;;;;;;9.07;7.38;;;26.20;99.90;;;;;;5002015;28;20049;-48
2023/08/24 09:02:18;;;;;;;14.80;8.07;;;26.30;99.90;;;;;;5004383;28;20046;-47
2023/08/24 09:04:47;;;;;;;9.55;7.68;;;26.50;99.90;;;;;;5008028;28;20137;-47
2023/08/24 09:07:15;;;;;;;9.68;8.07;;;26.80;99.90;;;;;;5010196;28;20137;-47
2023/08/24 09:09:43;;;;;;;9.15;7.50;;;27.10;99.90;;;;;;5007072;28;20410;-47
2023/08/24 09:12:10;;;;;;;9.05;7.65;;;27.40;99.90;;;;;;5002853;28;20541;-47
2023/08/24 09:14:38;;;;;;;10.60;7.35;;;27.70;99.90;;;;;;5002882;28;20400;-47
2023/08/24 09:17:05;;;;;;;8.77;8.07;;;28.00;99.90;;;;;;5003823;28;20129;-48
2023/08/24 09:19:38;;;;;;;10.48;7.68;;;28.40;99.90;;;;;;5006923;28;20072;-45
2023/08/24 09:22:07;;;;;;;8.38;7.68;;;28.80;99.90;;;;;;5004159;28;20072;-42
2023/08/24 09:24:35;;;;;;;11.35;8.85;;;29.10;99.90;;;;;;5000584;28;20053;-46
2023/08/24 09:27:20;;;;;;;9.45;8.45;;;29.10;99.90;;;;;;5000403;28;20136;-45
2023/08/24 09:29:52;;;;;;;9.20;8.20;;;29.10;99.90;;;;;;5000320;28;20560;-43
2023/08/24 09:32:30;;;;;;;10.20;8.65;;;29.00;99.90;;;;;;5001251;28;20046;-44
2023/08/24 09:35:20;;;;;;;9.77;8.48;;;28.70;99.90;;;;;;5000572;28;20050;-44
2023/08/24 09:37:50;;;;;;;9.02;8.02;;;28.50;99.90;;;;;;5006621;28;20516;-41
2023/08/24 09:40:24;;;;;;;8.38;7.57;;;28.60;99.90;;;;;;5005524;28;20054;-45
2023/08/24 09:42:51;;;;;;;12.20;7.63;;;28.50;99.90;;;;;;5007451;28;20363;-48
2023/08/24 09:45:19;;;;;;;8.20;7.50;;;28.30;99.90;;;;;;5007917;28;20049;-45
2023/08/24 09:47:51;;;;;;;9.60;8.65;;;28.30;99.90;;;;;;5001125;28;20548;-48
2023/08/24 09:50:18;;;;;;;12.60;8.52;;;28.50;99.90;;;;;;4996668;28;20119;-47
2023/08/24 09:52:48;;;;;;;11.45;8.90;;;28.50;99.90;;;;;;4997105;28;20331;-48
2023/08/24 09:55:22;;;;;;;9.13;8.23;;;28.60;99.90;;;;;;4995919;28;20038;-43
2023/08/24 09:57:54;;;;;;;13.57;8.30;;;28.80;99.90;;;;;;4996653;28;20077;-45
2023/08/24 10:00:24;;;;;;;8.73;7.65;;;28.90;99.90;;;;;;5005478;28;20545;-47
2023/08/24 10:02:54;;;;;;;9.95;7.70;;;29.10;99.90;;;;;;5000928;28;20046;-43
2023/08/24 10:05:25;;;;;;;9.25;7.40;;;29.30;99.90;;;;;;5007465;28;20046;-46
2023/08/24 10:07:56;;;;;;;8.57;7.50;;;29.40;99.90;;;;;;4998871;28;20169;-47
2023/08/24 10:10:27;;;;;;;8.88;7.40;;;29.70;99.90;;;;;;5001911;28;20049;-43
2023/08/24 10:13:06;;;;;;;10.23;6.83;;;29.90;99.90;;;;;;4998030;28;20049;-48
2023/08/24 10:15:35;;;;;;;15.23;8.90;;;30.10;99.90;;;;;;4998233;28;20293;-48
2023/08/24 10:18:05;;;;;;;13.10;11.88;;;30.30;99.90;;;;;;5000950;28;20046;-42
2023/08/24 10:20:33;;;;;;;9.68;8.85;;;30.30;99.90;;;;;;4997852;28;20046;-43
2023/08/24 10:23:01;;;;;;;9.35;8.55;;;30.40;99.90;;;;;;5000695;28;20375;-43
2023/08/24 10:25:32;;;;;;;9.95;9.07;;;30.50;99.90;;;;;;5005854;28;20082;-44
2023/08/24 10:28:01;;;;;;;8.27;7.47;;;30.40;99.90;;;;;;5009143;28;20442;-44
2023/08/24 10:30:30;;;;;;;9.35;7.85;;;30.60;99.90;;;;;;5013682;28;20074;-42
2023/08/24 10:32:59;;;;;;;12.80;8.73;;;30.80;99.90;;;;;;5008096;28;20049;-43
2023/08/24 10:35:28;;;;;;;12.55;7.45;;;30.90;99.90;;;;;;5004571;28;20074;-45
2023/08/24 10:37:59;;;;;;;9.00;7.10;;;31.00;99.90;;;;;;5000058;28;20046;-43
2023/08/24 10:40:37;;;;;;;8.32;7.60;;;31.10;99.90;;;;;;5004767;28;20192;-43
2023/08/24 10:43:05;;;;;;;11.15;7.90;;;31.20;99.90;;;;;;4994515;28;20046;-42
2023/08/24 10:45:58;;;;;;;11.73;8.27;;;31.40;99.90;;;;;;5003877;28;20081;-43
2023/08/24 10:48:29;;;;;;;8.70;7.57;;;31.70;99.90;;;;;;5000155;28;20042;-44
2023/08/24 10:51:21;;;;;;;9.13;8.00;;;31.90;99.90;;;;;;5002408;28;20443;-43
2023/08/24 10:53:53;;;;;;;8.38;7.18;;;32.20;99.90;;;;;;5002710;28;20066;-45
2023/08/24 10:56:21;;;;;;;10.23;9.13;;;32.40;99.90;;;;;;5000896;28;20077;-44
2023/08/24 10:59:15;;;;;;;12.80;7.75;;;32.40;99.90;;;;;;5002116;28;20802;-41
2023/08/24 11:01:52;;;;;;;8.00;7.20;;;32.70;99.90;;;;;;5002532;28;20041;-43
2023/08/24 11:04:20;;;;;;;8.15;7.43;;;33.00;99.90;;;;;;5002684;28;20537;-41
2023/08/24 11:07:04;;;;;;;10.95;7.22;;;33.00;99.90;;;;;;5006762;28;20104;-40
2023/08/24 11:09:47;;;;;;;10.57;7.78;;;33.10;99.90;;;;;;5007434;28;20046;-43
2023/08/24 11:12:15;;;;;;;11.02;7.60;;;33.20;99.90;;;;;;5004177;28;20050;-45
2023/08/24 11:14:58;;;;;;;9.15;8.10;;;33.40;99.90;;;;;;4995864;28;20053;-44
2023/08/24 11:17:33;;;;;;;7.72;7.03;;;33.70;99.90;;;;;;5001047;28;20069;-45
2023/08/24 11:20:01;;;;;;;7.97;7.18;;;33.90;99.20;;;;;;5001171;28;20124;-44
2023/08/24 11:22:32;;;;;;;8.30;7.60;;;34.30;99.00;;;;;;5005838;28;20120;-44
2023/08/24 11:25:00;;;;;;;8.73;7.93;;;34.50;98.40;;;;;;5004436;28;20053;-43
2023/08/24 11:27:29;;;;;;;9.88;7.78;;;34.70;97.80;;;;;;5002336;28;20054;-43
2023/08/24 11:30:05;;;;;;;11.15;7.95;;;35.00;96.70;;;;;;5011960;28;20042;-46
2023/08/24 11:32:32;;;;;;;11.63;7.35;;;34.80;96.50;;;;;;5002164;28;20048;-43
2023/08/24 11:35:00;;;;;;;10.57;7.32;;;35.10;96.20;;;;;;5002793;28;20129;-44
2023/08/24 11:37:27;;;;;;;8.43;7.43;;;35.50;95.60;;;;;;5002203;28;20054;-43
2023/08/24 11:39:54;;;;;;;9.98;8.13;;;35.70;94.50;;;;;;5004793;28;20046;-44
2023/08/24 11:42:22;;;;;;;9.05;7.45;;;35.60;94.50;;;;;;4990540;28;20128;-42
2023/08/24 11:44:49;;;;;;;11.95;8.40;;;35.90;93.70;;;;;;5008402;28;20458;-44
2023/08/24 11:47:20;;;;;;;13.55;9.57;;;36.20;93.30;;;;;;5014586;28;20561;-40
2023/08/24 11:49:47;;;;;;;8.57;7.80;;;36.70;91.90;;;;;;5012565;28;20151;-41
2023/08/24 11:52:15;;;;;;;8.45;7.40;;;36.50;91.30;;;;;;5009064;28;20465;-44
2023/08/24 11:54:44;;;;;;;8.68;7.93;;;36.80;90.50;;;;;;4999521;28;20046;-43
2023/08/24 11:57:11;;;;;;;6.30;5.80;;;37.20;87.70;;;;;;4998903;28;20053;-44
2023/08/24 11:59:39;;;;;;;9.88;6.60;;;37.30;86.10;;;;;;5007055;28;20050;-43
2023/08/24 12:02:09;;;;;;;9.40;8.43;;;37.20;84.90;;;;;;5005940;28;20089;-46
2023/08/24 12:04:42;;;;;;;8.50;7.83;;;37.20;84.60;;;;;;5005516;28;20062;-43
2023/08/24 12:07:12;;;;;;;9.27;8.00;;;37.50;81.00;;;;;;5001797;28;20161;-43
2023/08/24 12:09:40;;;;;;;9.35;7.80;;;37.80;77.60;;;;;;4996448;28;20080;-41
2023/08/24 12:12:15;;;;;;;10.18;8.07;;;38.40;76.50;;;;;;4997985;28;20478;-43
2023/08/24 12:14:44;;;;;;;8.95;8.02;;;38.40;77.00;;;;;;5003113;28;20038;-42
2023/08/24 12:17:12;;;;;;;8.60;7.80;;;38.60;76.30;;;;;;5000336;28;20042;-42
2023/08/24 12:19:44;;;;;;;9.98;8.18;;;38.90;75.90;;;;;;5006467;28;20045;-44
2023/08/24 12:22:19;;;;;;;8.35;7.63;;;39.00;70.70;;;;;;5008882;28;20081;-43
2023/08/24 12:24:47;;;;;;;10.75;8.07;;;38.50;71.60;;;;;;5007451;28;20532;-43
2023/08/24 12:27:22;;;;;;;11.48;9.60;;;38.80;70.70;;;;;;5012873;28;20053;-42
2023/08/24 12:29:50;;;;;;;8.60;7.60;;;38.90;68.80;;;;;;5008668;28;20053;-42
2023/08/24 12:32:23;;;;;;;8.23;7.40;;;38.80;68.40;;;;;;5003054;28;20045;-40
2023/08/24 12:34:54;;;;;;;14.68;7.95;;;39.40;67.70;;;;;;5008248;28;20050;-41
2023/08/24 12:37:22;;;;;;;9.25;7.20;;;40.10;67.60;;;;;;5007101;28;20046;-42
2023/08/24 12:39:49;;;;;;;8.95;8.10;;;39.80;66.40;;;;;;5009626;28;20045;-41
2023/08/24 12:42:17;;;;;;;8.00;7.22;;;39.80;67.90;;;;;;5009891;28;20054;-41
2023/08/24 12:44:44;;;;;;;8.88;8.02;;;40.00;66.90;;;;;;5005295;28;20045;-43
2023/08/24 12:47:12;;;;;;;8.88;8.00;;;39.60;65.90;;;;;;5003514;28;20479;-43
2023/08/24 12:49:39;;;;;;;10.45;7.82;;;39.20;65.80;;;;;;5008397;28;20076;-43